Time;durP1;ratioP1;P1;durP2;ratioP2;P2;SDS_P1;SDS_P2;PMS_P1;PMS_P2;Temp;Humidity;BMP_temperature;BMP_pressure;BME280_temperature;BME280_humidity;BME280_pressure;Samples;Min_cycle;Max_cycle;Signal;HPM_P1;HPM_P2
2021/11/29 00:01:44;;;;;;;;;4.00;3.75;;;;;20.10;36.52;100288.28;5074780;27;53901;-43
2021/11/29 00:04:10;;;;;;;;;4.00;4.00;;;;;20.07;36.35;100280.50;5078977;27;51282;-43
2021/11/29 00:06:35;;;;;;;;;4.25;3.00;;;;;20.06;36.76;100287.91;5092007;27;52698;-44
2021/11/29 00:09:01;;;;;;;;;2.50;2.50;;;;;20.05;36.41;100288.16;5070435;27;50931;-44
2021/11/29 00:11:27;;;;;;;;;4.25;4.00;;;;;20.03;36.58;100291.13;5072583;28;51059;-43
2021/11/29 00:13:52;;;;;;;;;5.25;2.75;;;;;20.02;36.51;100291.38;5075842;27;51032;-45
2021/11/29 00:16:18;;;;;;;;;3.50;3.50;;;;;19.99;36.49;100284.41;5075010;27;51748;-45
2021/11/29 00:18:43;;;;;;;;;3.00;3.00;;;;;19.98;36.54;100288.22;5075585;27;50929;-44
2021/11/29 00:21:11;;;;;;;;;3.00;3.00;;;;;19.97;36.53;100297.56;5093413;27;50974;-44
2021/11/29 00:23:37;;;;;;;;;4.00;3.00;;;;;19.95;36.60;100291.47;5079842;28;51005;-43
2021/11/29 00:26:03;;;;;;;;;4.25;3.75;;;;;19.93;36.58;100301.84;5077781;27;51777;-43
2021/11/29 00:28:28;;;;;;;;;4.50;3.50;;;;;19.92;36.61;100300.19;5079253;27;51083;-43
2021/11/29 00:30:54;;;;;;;;;3.50;2.75;;;;;19.90;36.51;100302.28;5084103;27;51200;-44
2021/11/29 00:33:19;;;;;;;;;6.00;4.50;;;;;19.89;36.64;100308.84;5077789;27;50959;-44
2021/11/29 00:35:45;;;;;;;;;4.50;4.00;;;;;19.87;36.59;100300.84;5078489;27;51734;-45
2021/11/29 00:38:12;;;;;;;;;2.00;2.00;;;;;19.86;36.29;100312.91;5075707;27;51502;-44
2021/11/29 00:40:39;;;;;;;;;3.50;3.25;;;;;19.84;36.46;100311.47;5095169;27;51166;-44
2021/11/29 00:43:05;;;;;;;;;3.00;3.00;;;;;19.82;36.28;100308.97;5078837;27;51104;-44
2021/11/29 00:45:31;;;;;;;;;5.00;4.25;;;;;19.81;36.71;100300.97;5079575;27;51182;-46
2021/11/29 00:47:56;;;;;;;;;4.00;3.00;;;;;19.79;36.37;100306.66;5079179;27;51503;-44
2021/11/29 00:50:22;;;;;;;;;5.50;5.50;;;;;19.79;36.59;100314.06;5083008;27;51288;-45
2021/11/29 00:52:47;;;;;;;;;3.75;3.50;;;;;19.78;36.34;100312.38;5073124;27;51082;-44
2021/11/29 00:55:15;;;;;;;;;3.75;3.75;;;;;19.76;36.39;100318.13;5070873;28;51336;-44
2021/11/29 00:57:41;;;;;;;;;3.00;3.00;;;;;19.75;36.55;100319.19;5069968;28;51251;-45
2021/11/29 01:00:10;;;;;;;;;3.25;2.75;;;;;19.74;36.42;100330.41;5075996;27;51074;-44
2021/11/29 01:02:36;;;;;;;;;4.50;4.25;;;;;19.72;36.68;100330.66;5094441;27;50952;-43
2021/11/29 01:05:02;;;;;;;;;4.00;3.75;;;;;19.73;36.69;100342.47;5073506;27;51182;-46
2021/11/29 01:07:28;;;;;;;;;5.00;4.00;;;;;19.71;36.38;100334.47;5069493;28;51143;-42
2021/11/29 01:09:53;;;;;;;;;3.75;3.75;;;;;19.70;36.74;100335.53;5075628;27;51241;-44
2021/11/29 01:12:19;;;;;;;;;4.75;3.00;;;;;19.69;36.78;100342.09;5091125;27;51234;-43
2021/11/29 01:14:44;;;;;;;;;4.00;3.75;;;;;19.67;36.91;100343.38;5076915;27;51063;-43
2021/11/29 01:17:11;;;;;;;;;4.25;3.00;;;;;19.66;36.62;100347.19;5073504;27;51219;-43
2021/11/29 01:19:36;;;;;;;;;3.25;3.25;;;;;19.66;36.55;100352.69;5078644;27;51116;-43
2021/11/29 01:22:03;;;;;;;;;3.00;3.00;;;;;19.65;36.93;100351.03;5078215;27;51167;-43
2021/11/29 01:24:28;;;;;;;;;5.75;3.75;;;;;19.64;36.88;100354.84;5075352;27;51151;-43
2021/11/29 01:26:54;;;;;;;;;3.75;3.75;;;;;19.63;36.83;100350.41;5083104;27;51062;-43
2021/11/29 01:29:19;;;;;;;;;3.25;3.00;;;;;19.62;36.75;100348.75;5077553;28;51337;-43
2021/11/29 01:31:45;;;;;;;;;3.75;3.75;;;;;19.60;36.79;100348.97;5077516;27;51697;-43
2021/11/29 01:34:12;;;;;;;;;4.00;4.00;;;;;19.59;36.92;100353.63;5077666;27;51288;-43
2021/11/29 01:36:38;;;;;;;;;4.75;3.00;;;;;19.59;36.79;100361.00;5082653;27;51499;-44
2021/11/29 01:39:05;;;;;;;;;4.00;4.00;;;;;19.58;36.80;100362.06;5094237;27;51125;-43
2021/11/29 01:41:30;;;;;;;;;4.50;3.75;;;;;19.56;36.88;100361.47;5077226;27;51201;-44
2021/11/29 01:43:56;;;;;;;;;5.00;4.00;;;;;19.56;36.66;100364.22;5077465;27;50974;-43
2021/11/29 01:46:21;;;;;;;;;4.00;4.00;;;;;19.55;36.63;100373.50;5073178;27;51061;-43
2021/11/29 01:48:47;;;;;;;;;3.00;3.00;;;;;19.53;36.64;100368.25;5094011;27;51009;-43
2021/11/29 01:51:12;;;;;;;;;6.00;3.00;;;;;19.52;36.85;100369.31;5079771;27;51028;-44
2021/11/29 01:53:39;;;;;;;;;4.00;4.00;;;;;19.52;36.56;100380.28;5077418;28;51178;-46
2021/11/29 01:56:05;;;;;;;;;3.00;3.00;;;;;19.51;36.62;100383.28;5082164;27;51082;-43
2021/11/29 01:58:32;;;;;;;;;3.75;3.50;;;;;19.49;36.63;100374.44;5077784;27;50945;-46
2021/11/29 02:01:03;;;;;;;;;4.75;3.00;;;;;19.48;36.98;100381.78;5067033;28;51199;-44
2021/11/29 02:03:29;;;;;;;;;7.75;4.75;;;;;19.47;36.63;100376.53;5091921;27;52918;-48
2021/11/29 02:05:55;;;;;;;;;5.25;3.25;;;;;19.45;36.64;100385.00;5076023;27;51004;-45
2021/11/29 02:08:21;;;;;;;;;4.00;4.00;;;;;19.45;36.79;100390.50;5077918;27;51096;-46
2021/11/29 02:10:47;;;;;;;;;3.00;3.00;;;;;19.44;36.58;100379.75;5073755;27;51357;-45
2021/11/29 02:13:13;;;;;;;;;5.00;2.75;;;;;19.43;36.86;100392.63;5076512;27;52131;-47
2021/11/29 02:15:39;;;;;;;;;4.75;4.25;;;;;19.42;36.66;100388.22;5076537;27;51239;-41
2021/11/29 02:18:07;;;;;;;;;3.75;3.75;;;;;19.41;36.89;100386.53;5082500;27;51138;-44
2021/11/29 02:20:35;;;;;;;;;6.00;4.00;;;;;19.41;36.74;100392.03;5076528;27;51334;-46
2021/11/29 02:23:02;;;;;;;;;3.50;3.50;;;;;19.40;36.70;100392.25;5077215;27;51748;-44
2021/11/29 02:25:28;;;;;;;;;4.50;3.25;;;;;19.39;36.59;100398.81;5077047;27;51210;-43
2021/11/29 02:27:54;;;;;;;;;3.25;3.25;;;;;19.38;36.75;100405.34;5080007;27;51237;-44
2021/11/29 02:30:23;;;;;;;;;3.00;3.00;;;;;19.37;36.67;100396.28;5076609;27;51139;-44
2021/11/29 02:32:50;;;;;;;;;2.75;2.75;;;;;19.36;36.86;100402.00;5071906;27;51074;-46
2021/11/29 02:35:15;;;;;;;;;2.00;2.00;;;;;19.35;36.82;100406.66;5077193;27;51237;-44
2021/11/29 02:37:40;;;;;;;;;2.00;2.00;;;;;19.33;36.72;100406.88;5073120;27;51677;-44
2021/11/29 02:40:07;;;;;;;;;2.75;2.75;;;;;19.34;36.75;100404.97;5071703;27;51185;-46
2021/11/29 02:42:33;;;;;;;;;3.75;3.00;;;;;19.33;36.75;100417.88;5076114;28;51996;-44
2021/11/29 02:44:59;;;;;;;;;4.50;4.00;;;;;19.31;36.66;100414.50;5076104;27;51075;-43
2021/11/29 02:47:24;;;;;;;;;6.00;2.75;;;;;19.31;36.57;100410.94;5068026;27;51030;-45
2021/11/29 02:49:50;;;;;;;;;3.75;3.75;;;;;19.29;36.74;100402.91;5074754;28;51090;-44
2021/11/29 02:52:17;;;;;;;;;5.50;4.00;;;;;19.28;36.79;100409.47;5075721;27;52499;-43
2021/11/29 02:54:44;;;;;;;;;2.75;2.75;;;;;19.29;36.66;100421.31;5075142;27;51119;-47
2021/11/29 02:57:19;;;;;;;;;6.00;4.00;;;;;19.26;36.48;100408.00;5077830;27;51118;-43
2021/11/29 02:59:45;;;;;;;;;3.00;3.00;;;;;19.27;36.67;100421.50;5076063;27;51255;-45
2021/11/29 03:02:15;;;;;;;;;3.75;2.00;;;;;19.26;36.64;100418.97;5075497;27;51102;-44
2021/11/29 03:04:42;;;;;;;;;3.50;3.50;;;;;19.24;37.05;100421.97;5074946;27;51109;-44
2021/11/29 03:07:09;;;;;;;;;4.00;4.00;;;;;19.24;36.79;100427.44;5076558;27;50967;-44
2021/11/29 03:09:35;;;;;;;;;2.75;2.50;;;;;19.24;36.55;100432.09;5075137;28;51157;-44
2021/11/29 03:12:02;;;;;;;;;3.75;3.25;;;;;19.22;36.78;100426.00;5075608;27;51715;-44
2021/11/29 03:14:28;;;;;;;;;3.00;3.00;;;;;19.21;36.85;100443.53;5092007;27;51335;-43
2021/11/29 03:16:55;;;;;;;;;5.25;1.75;;;;;19.20;36.69;100439.13;5076382;27;51150;-43
2021/11/29 03:19:21;;;;;;;;;3.00;2.00;;;;;19.20;36.70;100452.84;5076282;27;51079;-44
2021/11/29 03:21:47;;;;;;;;;3.50;3.50;;;;;19.18;36.68;100444.84;5075827;27;50996;-43
2021/11/29 03:24:13;;;;;;;;;4.75;3.25;;;;;19.17;36.84;100456.84;5075095;27;51616;-44
2021/11/29 03:26:39;;;;;;;;;2.25;2.25;;;;;19.18;36.81;100461.31;5077818;27;50891;-44
2021/11/29 03:29:09;;;;;;;;;5.00;3.00;;;;;19.16;36.82;100465.31;5072356;28;50982;-43
2021/11/29 03:31:36;;;;;;;;;2.25;2.25;;;;;19.16;36.58;100470.81;5071661;27;51255;-44
2021/11/29 03:34:03;;;;;;;;;3.00;2.50;;;;;19.14;36.70;100471.03;5076347;27;51041;-43
2021/11/29 03:36:32;;;;;;;;;3.25;3.25;;;;;19.14;36.62;100468.28;5076416;27;51283;-42
2021/11/29 03:38:59;;;;;;;;;4.00;2.75;;;;;19.12;36.72;100464.94;5076563;27;51114;-44
2021/11/29 03:41:25;;;;;;;;;2.75;2.75;;;;;19.12;36.83;100472.34;5076088;27;51954;-43
2021/11/29 03:43:52;;;;;;;;;2.00;2.00;;;;;19.11;36.71;100476.97;5081474;27;51055;-43
2021/11/29 03:46:18;;;;;;;;;2.00;2.00;;;;;19.10;36.52;100480.78;5075631;27;51198;-43
2021/11/29 03:48:43;;;;;;;;;2.00;2.00;;;;;19.10;36.78;100486.28;5068682;28;51243;-44
2021/11/29 03:51:09;;;;;;;;;3.25;1.25;;;;;19.09;36.53;100490.09;5072387;27;51940;-44
2021/11/29 03:53:34;;;;;;;;;4.50;3.50;;;;;19.08;36.74;100495.81;5075862;27;51078;-50
2021/11/29 03:56:00;;;;;;;;;3.25;3.25;;;;;19.08;36.94;100501.31;5077056;28;51486;-45
2021/11/29 03:58:26;;;;;;;;;3.25;2.00;;;;;19.07;36.67;100500.47;5075022;27;51040;-47
2021/11/29 04:00:52;;;;;;;;;2.00;2.00;;;;;19.07;36.74;100510.56;5077310;27;51071;-45
2021/11/29 04:03:18;;;;;;;;;2.25;2.25;;;;;19.05;36.78;100510.81;5079493;27;51154;-46
2021/11/29 04:05:43;;;;;;;;;2.25;1.25;;;;;19.04;36.83;100509.97;5082500;27;51133;-43
2021/11/29 04:08:09;;;;;;;;;3.75;2.00;;;;;19.03;36.65;100516.50;5079698;27;50931;-43
2021/11/29 04:10:35;;;;;;;;;3.25;1.75;;;;;19.03;36.75;100512.94;5077299;27;51633;-43
2021/11/29 04:13:00;;;;;;;;;2.00;2.00;;;;;19.01;36.82;100504.91;5078192;27;51201;-45
2021/11/29 04:15:26;;;;;;;;;1.25;1.25;;;;;19.01;36.45;100510.41;5077131;27;51134;-45
2021/11/29 04:17:51;;;;;;;;;3.00;2.50;;;;;19.02;36.81;100524.97;5093821;27;51141;-44
2021/11/29 04:20:17;;;;;;;;;4.00;2.00;;;;;19.02;36.61;100527.72;5079031;28;51627;-44
2021/11/29 04:22:45;;;;;;;;;1.00;1.00;;;;;19.00;36.61;100530.69;5079341;27;51064;-43
2021/11/29 04:25:13;;;;;;;;;1.75;1.75;;;;;18.99;36.65;100531.75;5073818;27;50964;-45
2021/11/29 04:27:41;;;;;;;;;1.50;1.50;;;;;18.98;36.68;100526.50;5075611;27;51408;-43
2021/11/29 04:30:12;;;;;;;;;4.00;4.00;;;;;18.97;36.71;100539.38;5092717;27;53767;-45
2021/11/29 04:32:38;;;;;;;;;2.00;2.00;;;;;18.96;36.65;100543.16;5074964;27;51082;-44
2021/11/29 04:35:04;;;;;;;;;2.75;2.75;;;;;18.95;36.40;100538.72;5084240;27;51293;-43
2021/11/29 04:37:29;;;;;;;;;2.75;2.75;;;;;18.94;36.74;100534.31;5081614;27;50988;-45
2021/11/29 04:39:55;;;;;;;;;1.25;1.25;;;;;18.94;36.58;100537.03;5070032;27;51827;-43
2021/11/29 04:42:20;;;;;;;;;2.00;1.25;;;;;18.94;36.65;100549.94;5078931;28;52212;-45
2021/11/29 04:44:46;;;;;;;;;1.75;1.75;;;;;18.92;36.49;100550.16;5082788;27;51209;-45
2021/11/29 04:47:11;;;;;;;;;3.25;2.00;;;;;18.91;36.52;100553.97;5080086;27;51055;-43
2021/11/29 04:49:37;;;;;;;;;1.25;1.25;;;;;18.91;36.51;100556.72;5078569;27;51857;-43
2021/11/29 04:52:02;;;;;;;;;1.25;1.00;;;;;18.91;36.67;100567.69;5084112;27;51193;-43
2021/11/29 04:54:28;;;;;;;;;2.25;1.75;;;;;18.89;36.63;100563.47;5071187;27;51044;-43
2021/11/29 04:56:53;;;;;;;;;1.25;1.25;;;;;18.89;36.67;100563.47;5075781;27;50880;-45
2021/11/29 04:59:19;;;;;;;;;1.00;1.00;;;;;18.88;36.76;100570.88;5072026;27;51652;-43
2021/11/29 05:01:44;;;;;;;;;2.25;1.00;;;;;18.87;36.83;100573.84;5094516;27;51129;-43
2021/11/29 05:04:10;;;;;;;;;1.00;1.00;;;;;18.86;36.71;100581.22;5078277;27;50993;-43
2021/11/29 05:06:37;;;;;;;;;2.25;2.25;;;;;18.86;36.77;100581.22;5078395;27;50976;-45
2021/11/29 05:09:09;;;;;;;;;2.00;2.00;;;;;18.85;36.88;100586.91;5077566;27;51850;-44
2021/11/29 05:11:35;;;;;;;;;1.00;1.00;;;;;18.83;36.57;100592.63;5073448;28;50897;-43
2021/11/29 05:14:01;;;;;;;;;2.00;2.00;;;;;18.84;36.85;100601.69;5077836;27;50995;-43
2021/11/29 05:16:27;;;;;;;;;1.25;1.25;;;;;18.83;36.61;100591.78;5074780;28;51044;-42
2021/11/29 05:18:52;;;;;;;;;4.25;1.50;;;;;18.82;36.73;100598.34;5077511;27;51028;-41
2021/11/29 05:21:18;;;;;;;;;2.00;0.75;;;;;18.80;36.48;100608.69;5094512;27;51113;-43
2021/11/29 05:23:44;;;;;;;;;0.50;0.50;;;;;18.81;36.66;100619.44;5076658;27;51183;-44
2021/11/29 05:26:09;;;;;;;;;1.00;1.00;;;;;18.80;36.66;100622.41;5080491;27;51201;-44
2021/11/29 05:28:35;;;;;;;;;1.00;1.00;;;;;18.80;36.66;100619.66;5075187;27;52646;-44
2021/11/29 05:31:00;;;;;;;;;1.50;1.50;;;;;18.78;36.71;100624.53;5069806;28;50984;-44
2021/11/29 05:33:26;;;;;;;;;1.25;1.25;;;;;18.77;36.58;100625.59;5093644;27;52272;-47
2021/11/29 05:35:51;;;;;;;;;1.50;0.50;;;;;18.77;36.74;100639.31;5077821;27;50976;-44
2021/11/29 05:38:16;;;;;;;;;1.25;1.25;;;;;18.75;36.69;100643.09;5076359;27;51870;-42
2021/11/29 05:40:42;;;;;;;;;2.00;1.00;;;;;18.75;36.64;100643.09;5090240;27;50978;-41
2021/11/29 05:43:07;;;;;;;;;2.00;2.00;;;;;18.74;36.75;100652.38;5076541;27;51150;-42
2021/11/29 05:45:33;;;;;;;;;0.50;0.50;;;;;18.73;36.60;100650.72;5082290;27;51415;-45
2021/11/29 05:47:58;;;;;;;;;1.00;1.00;;;;;18.73;36.82;100655.34;5077562;27;50954;-44
2021/11/29 05:50:25;;;;;;;;;1.00;1.00;;;;;18.72;36.37;100659.16;5078023;28;50913;-44
2021/11/29 05:52:50;;;;;;;;;1.50;1.50;;;;;18.72;36.69;100664.66;5077094;27;51181;-47
2021/11/29 05:55:16;;;;;;;;;4.00;2.50;;;;;18.70;36.82;100666.78;5072152;27;51119;-43
2021/11/29 05:57:42;;;;;;;;;2.00;1.00;;;;;18.70;36.38;100666.78;5096332;27;51094;-44
2021/11/29 06:00:11;;;;;;;;;2.00;1.00;;;;;18.70;36.45;100677.75;5097806;27;51443;-46
2021/11/29 06:02:38;;;;;;;;;0.75;0.75;;;;;18.69;36.64;100676.06;5073891;27;51090;-44
2021/11/29 06:05:05;;;;;;;;;1.00;1.00;;;;;18.69;36.64;100678.81;5077480;27;51340;-44
2021/11/29 06:07:30;;;;;;;;;1.00;1.00;;;;;18.67;36.68;100692.75;5093633;27;54014;-47
2021/11/29 06:09:55;;;;;;;;;2.00;2.00;;;;;18.66;36.46;100693.81;5075606;27;51043;-44
2021/11/29 06:12:21;;;;;;;;;2.25;2.25;;;;;18.66;36.07;100696.53;5076670;27;51201;-45
2021/11/29 06:14:46;;;;;;;;;3.25;3.00;;;;;18.63;35.29;100704.31;5080506;27;51493;-44
2021/11/29 06:17:12;;;;;;;;;4.00;3.00;;;;;18.59;34.66;100714.88;5073290;27;52644;-44
2021/11/29 06:19:37;;;;;;;;;5.25;4.50;;;;;18.55;34.58;100710.00;5075409;27;51169;-41
2021/11/29 06:22:03;;;;;;;;;3.00;3.00;;;;;18.51;34.09;100715.09;5067515;27;51146;-46
2021/11/29 06:24:28;;;;;;;;;4.00;2.25;;;;;18.46;34.10;100715.72;5069578;27;50982;-42
2021/11/29 06:26:53;;;;;;;;;4.75;4.00;;;;;18.41;34.09;100725.63;5080716;27;53699;-44
2021/11/29 06:29:19;;;;;;;;;4.00;2.75;;;;;18.32;33.71;100708.53;5072453;28;51457;-43
2021/11/29 06:31:44;;;;;;;;;3.00;3.00;;;;;18.33;34.01;100712.13;5071446;27;51177;-41
2021/11/29 06:34:10;;;;;;;;;2.00;1.50;;;;;18.39;33.91;100730.50;5076903;27;50960;-45
2021/11/29 06:36:35;;;;;;;;;3.00;3.00;;;;;18.44;33.95;100731.56;5073610;27;52828;-45
2021/11/29 06:39:01;;;;;;;;;1.75;1.75;;;;;18.54;33.68;100735.75;5074797;27;51082;-48
2021/11/29 06:41:27;;;;;;;;;3.00;3.00;;;;;18.63;33.99;100739.97;5081679;27;51124;-43
2021/11/29 06:43:54;;;;;;;;;2.00;1.75;;;;;18.71;34.04;100751.63;5075268;28;51097;-46
2021/11/29 06:46:19;;;;;;;;;3.00;1.75;;;;;18.80;33.82;100765.13;5075638;27;51524;-43
2021/11/29 06:48:45;;;;;;;;;2.75;2.00;;;;;18.89;34.16;100758.34;5074807;27;50977;-44
2021/11/29 06:51:11;;;;;;;;;1.00;1.00;;;;;18.97;34.55;100766.38;5074983;27;50917;-45
2021/11/29 06:53:38;;;;;;;;;1.00;1.00;;;;;19.03;34.32;100760.84;5074819;27;51055;-46
2021/11/29 06:56:04;;;;;;;;;2.75;1.00;;;;;19.13;34.29;100768.63;5075847;27;51782;-44
2021/11/29 06:58:30;;;;;;;;;1.25;1.25;;;;;19.21;34.95;100768.41;5086792;27;51246;-44
2021/11/29 07:00:56;;;;;;;;;3.00;0.50;;;;;19.29;35.25;100778.31;5076146;27;50909;-47
2021/11/29 07:03:22;;;;;;;;;0.00;0.00;;;;;19.35;35.34;100782.09;5074127;27;51090;-43
2021/11/29 07:05:50;;;;;;;;;1.00;1.00;;;;;19.40;35.66;100785.06;5070553;27;51973;-43
2021/11/29 07:08:17;;;;;;;;;3.75;1.00;;;;;19.45;35.60;100790.72;5067066;27;51664;-45
2021/11/29 07:10:42;;;;;;;;;3.75;2.25;;;;;19.52;35.93;100802.53;5074943;27;51051;-44
2021/11/29 07:13:12;;;;;;;;;2.00;1.00;;;;;19.58;35.89;100801.69;5073198;27;52300;-43
2021/11/29 07:15:39;;;;;;;;;1.75;1.75;;;;;19.63;36.03;100814.78;5090081;27;54103;-44
2021/11/29 07:18:05;;;;;;;;;1.50;1.00;;;;;19.69;36.08;100825.75;5066723;27;51151;-42
2021/11/29 07:20:30;;;;;;;;;0.75;0.75;;;;;19.75;36.56;100832.28;5068087;27;51245;-45
2021/11/29 07:22:56;;;;;;;;;3.50;1.00;;;;;19.79;36.32;100839.03;5069068;28;51290;-42
2021/11/29 07:25:21;;;;;;;;;1.25;1.00;;;;;19.84;36.76;100842.81;5069302;27;51135;-43
2021/11/29 07:27:47;;;;;;;;;1.00;1.00;;;;;19.90;36.42;100843.84;5074115;27;51229;-42
2021/11/29 07:30:16;;;;;;;;;1.00;1.00;;;;;19.95;36.72;100857.78;5072472;27;51340;-44
2021/11/29 07:32:42;;;;;;;;;3.50;1.75;;;;;20.00;36.19;100851.63;5076822;27;50869;-50
2021/11/29 07:35:09;;;;;;;;;3.50;3.25;;;;;20.04;36.59;100855.63;5067221;27;51325;-44
2021/11/29 07:37:35;;;;;;;;;2.25;1.75;;;;;20.08;36.53;100859.63;5077216;28;51092;-45
2021/11/29 07:40:02;;;;;;;;;2.50;2.25;;;;;20.13;36.19;100859.81;5076059;27;51067;-46
2021/11/29 07:42:29;;;;;;;;;3.50;2.25;;;;;20.19;36.08;100862.53;5070644;27;51118;-46
2021/11/29 07:44:55;;;;;;;;;4.00;2.00;;;;;20.23;36.08;100868.44;5068661;27;50967;-47
2021/11/29 07:47:22;;;;;;;;;3.00;1.50;;;;;20.30;36.00;100869.22;5079296;27;51072;-47
2021/11/29 07:49:47;;;;;;;;;2.75;2.25;;;;;20.37;36.33;100863.69;5074175;27;51020;-47
2021/11/29 07:52:14;;;;;;;;;3.50;3.00;;;;;20.43;36.07;100871.97;5060457;28;51172;-45
2021/11/29 07:54:43;;;;;;;;;4.00;3.25;;;;;20.50;36.42;100868.31;5071407;28;51671;-44
2021/11/29 07:57:12;;;;;;;;;3.00;3.00;;;;;20.50;36.60;100873.81;5076131;27;51435;-45
2021/11/29 07:59:38;;;;;;;;;4.00;3.00;;;;;20.45;36.75;100875.31;5075525;27;51297;-44
2021/11/29 08:02:03;;;;;;;;;4.75;3.00;;;;;20.39;35.43;100872.56;5077935;27;51041;-47
2021/11/29 08:04:29;;;;;;;;;4.50;3.75;;;;;20.29;35.58;100872.22;5078677;28;51027;-47
2021/11/29 08:06:54;;;;;;;;;3.50;1.50;;;;;20.18;35.93;100882.84;5079889;27;51060;-44
2021/11/29 08:09:20;;;;;;;;;4.25;3.00;;;;;20.09;35.81;100883.31;5079827;27;51234;-48
2021/11/29 08:11:45;;;;;;;;;4.00;3.00;;;;;19.99;36.16;100889.28;5079846;27;50943;-48
2021/11/29 08:14:11;;;;;;;;;2.25;2.25;;;;;19.92;36.18;100893.13;5079214;27;52312;-45
2021/11/29 08:16:36;;;;;;;;;4.00;4.00;;;;;19.84;36.39;100894.22;5079890;27;50901;-44
2021/11/29 08:19:02;;;;;;;;;3.75;2.00;;;;;19.78;36.68;100908.81;5079806;27;51052;-46
2021/11/29 08:21:27;;;;;;;;;3.75;3.75;;;;;19.72;36.65;100917.94;5095200;27;51167;-46
2021/11/29 08:23:53;;;;;;;;;7.25;3.00;;;;;19.64;36.60;100918.16;5079418;27;52082;-43
2021/11/29 08:26:18;;;;;;;;;3.00;0.50;;;;;19.61;36.86;100919.44;5083665;27;50937;-44
2021/11/29 08:28:44;;;;;;;;;3.25;3.25;;;;;19.55;36.85;100921.13;5098960;27;51027;-44
2021/11/29 08:31:09;;;;;;;;;4.00;3.25;;;;;19.49;37.05;100919.22;5086978;27;50954;-46
2021/11/29 08:33:35;;;;;;;;;3.50;3.00;;;;;19.45;36.98;100920.69;5095533;27;53480;-44
2021/11/29 08:36:00;;;;;;;;;3.75;3.00;;;;;19.41;37.10;100924.94;5095054;27;51026;-44
2021/11/29 08:38:26;;;;;;;;;3.00;3.00;;;;;19.37;36.99;100929.16;5095647;27;51019;-46
2021/11/29 08:40:51;;;;;;;;;3.75;3.75;;;;;19.32;37.03;100928.94;5079323;28;51313;-45
2021/11/29 08:43:18;;;;;;;;;3.25;3.25;;;;;19.28;37.05;100927.69;5094601;27;51541;-45
2021/11/29 08:45:46;;;;;;;;;4.50;3.00;;;;;19.25;37.27;100933.59;5079565;27;51163;-45
2021/11/29 08:48:12;;;;;;;;;5.50;3.00;;;;;19.20;37.29;100947.97;5080045;27;50926;-44
2021/11/29 08:50:41;;;;;;;;;4.00;3.75;;;;;19.16;37.45;100940.34;5079409;27;51039;-45
2021/11/29 08:53:09;;;;;;;;;5.00;4.00;;;;;19.12;37.48;100936.34;5096650;27;52756;-45
2021/11/29 08:55:38;;;;;;;;;4.25;3.75;;;;;19.07;37.53;100937.00;5082249;27;51177;-45
2021/11/29 08:58:11;;;;;;;;;5.75;4.75;;;;;19.04;37.48;100935.50;5081842;28;51135;-46
2021/11/29 09:00:38;;;;;;;;;6.25;4.25;;;;;19.01;37.64;100933.19;5081202;27;51037;-45
2021/11/29 09:03:07;;;;;;;;;3.25;3.25;;;;;18.97;37.55;100940.16;5078828;27;51799;-46
2021/11/29 09:05:35;;;;;;;;;4.25;3.75;;;;;18.95;37.61;100950.47;5078592;27;50890;-47
2021/11/29 09:08:01;;;;;;;;;3.75;2.25;;;;;18.92;37.68;100944.56;5079213;27;50928;-46
2021/11/29 09:10:27;;;;;;;;;4.00;3.25;;;;;18.90;37.73;100952.19;5079130;27;51023;-45
2021/11/29 09:12:52;;;;;;;;;3.25;3.00;;;;;18.86;37.26;100951.75;5078187;28;51077;-46
2021/11/29 09:15:19;;;;;;;;;3.00;3.00;;;;;18.84;37.66;100959.34;5078620;27;51174;-45
2021/11/29 09:17:45;;;;;;;;;5.50;2.50;;;;;18.81;37.62;100959.75;5079247;27;51053;-45
2021/11/29 09:20:13;;;;;;;;;4.00;4.00;;;;;18.79;37.87;100964.63;5079305;27;51083;-45
2021/11/29 09:22:41;;;;;;;;;8.00;4.00;;;;;18.77;37.67;100969.47;5073968;27;51043;-45
2021/11/29 09:25:07;;;;;;;;;5.00;3.25;;;;;18.75;37.67;100974.28;5070482;27;51079;-46
2021/11/29 09:27:33;;;;;;;;;5.00;4.00;;;;;18.71;37.43;100965.66;5074353;27;50958;-46
2021/11/29 09:29:58;;;;;;;;;7.75;4.75;;;;;18.69;36.93;100976.00;5084649;27;51203;-44
2021/11/29 09:32:25;;;;;;;;;6.50;3.25;;;;;18.69;36.96;100966.91;5072833;28;51126;-46
2021/11/29 09:34:50;;;;;;;;;3.00;3.00;;;;;18.69;37.27;100978.72;5063904;27;51318;-44
2021/11/29 09:37:18;;;;;;;;;4.50;4.50;;;;;18.71;37.24;100986.75;5070715;27;51896;-45
2021/11/29 09:39:44;;;;;;;;;3.00;3.00;;;;;18.70;36.96;100982.31;5066804;27;51276;-45
2021/11/29 09:42:09;;;;;;;;;5.50;2.00;;;;;18.72;37.18;100991.19;5072038;28;51919;-46
2021/11/29 09:44:35;;;;;;;;;3.75;2.00;;;;;18.73;37.23;100993.72;5073258;27;52483;-44
2021/11/29 09:47:00;;;;;;;;;3.75;3.75;;;;;18.74;37.47;100994.56;5074852;27;51196;-48
2021/11/29 09:52:10;;;;;;;;;2.75;2.75;;;;;18.76;37.43;101000.72;5072668;28;51556;-43
2021/11/29 09:54:35;;;;;;;;;4.00;4.00;;;;;18.78;37.63;101023.31;5074183;27;51252;-45
2021/11/29 09:57:01;;;;;;;;;4.00;2.25;;;;;18.80;37.81;101018.44;5076167;27;51280;-43
2021/11/29 09:59:28;;;;;;;;;3.50;3.50;;;;;18.81;37.82;101014.66;5075703;27;51313;-46
2021/11/29 10:01:54;;;;;;;;;6.25;4.00;;;;;18.83;37.89;101017.19;5075251;27;52718;-47
2021/11/29 10:04:21;;;;;;;;;5.00;5.00;;;;;18.86;37.94;101020.38;5076461;27;51523;-45
2021/11/29 10:06:53;;;;;;;;;4.75;2.25;;;;;18.90;37.99;101024.38;5077721;27;51160;-45
2021/11/29 10:09:37;;;;;;;;;2.75;2.75;;;;;18.94;37.85;101022.91;5077113;27;51104;-43
2021/11/29 10:12:08;;;;;;;;;3.00;2.00;;;;;18.99;38.03;101025.03;5075223;27;51220;-46
2021/11/29 10:14:34;;;;;;;;;2.00;2.00;;;;;19.03;37.94;101029.91;5072853;27;52401;-44
2021/11/29 10:17:00;;;;;;;;;2.25;2.25;;;;;19.06;37.94;101025.03;5070831;27;51329;-48
2021/11/29 10:19:25;;;;;;;;;3.50;2.75;;;;;19.10;38.07;101026.34;5080334;27;51295;-44
2021/11/29 10:21:51;;;;;;;;;5.25;3.00;;;;;19.14;38.00;101020.19;5077319;28;51088;-45
2021/11/29 10:24:22;;;;;;;;;3.00;2.00;;;;;19.19;38.16;101025.09;5093909;27;51208;-44
2021/11/29 10:26:53;;;;;;;;;2.00;2.00;;;;;19.22;38.02;101019.16;5074770;27;51158;-45
2021/11/29 10:29:23;;;;;;;;;2.00;2.00;;;;;19.26;38.14;101025.91;5075899;27;51159;-46
2021/11/29 10:31:51;;;;;;;;;1.75;1.50;;;;;19.29;38.11;101022.78;5077312;27;52798;-46
2021/11/29 10:34:18;;;;;;;;;2.00;2.00;;;;;19.32;38.07;101025.94;5076281;27;51412;-46
2021/11/29 10:36:47;;;;;;;;;3.25;2.25;;;;;19.35;38.13;101024.66;5074656;28;51212;-44
2021/11/29 10:39:15;;;;;;;;;4.00;2.50;;;;;19.39;38.12;101016.88;5070452;27;51071;-46
2021/11/29 10:41:54;;;;;;;;;5.50;3.50;;;;;19.42;38.01;101028.25;5071845;28;53022;-46
2021/11/29 10:44:22;;;;;;;;;5.00;3.00;;;;;19.44;38.16;101026.16;5076493;27;51079;-45
2021/11/29 10:46:55;;;;;;;;;4.00;2.00;;;;;19.47;37.88;101030.38;5074076;27;51008;-46
2021/11/29 10:49:24;;;;;;;;;4.25;2.25;;;;;19.49;38.00;101029.13;5074153;27;51140;-48
2021/11/29 10:51:52;;;;;;;;;2.00;2.00;;;;;19.50;38.11;101025.31;5073672;27;51268;-51
2021/11/29 10:54:21;;;;;;;;;2.50;2.50;;;;;19.54;38.03;101028.47;5072791;27;51588;-48
2021/11/29 10:56:47;;;;;;;;;0.75;0.75;;;;;19.55;38.02;101030.16;5074252;27;51143;-48
2021/11/29 10:59:16;;;;;;;;;2.00;2.00;;;;;19.58;38.02;101030.59;5076285;27;51169;-48
2021/11/29 11:01:45;;;;;;;;;2.00;2.00;;;;;19.60;38.23;101038.66;5075773;27;51051;-46
2021/11/29 11:04:17;;;;;;;;;4.25;3.00;;;;;19.62;38.06;101039.28;5089118;27;52105;-46
2021/11/29 11:06:46;;;;;;;;;2.50;2.50;;;;;19.65;37.90;101043.50;5065128;27;51039;-45
2021/11/29 11:09:14;;;;;;;;;3.00;2.00;;;;;19.67;38.09;101047.72;5074935;27;51169;-47
2021/11/29 11:11:50;;;;;;;;;3.00;3.00;;;;;19.67;38.38;101047.72;5069560;27;51783;-44
2021/11/29 11:14:19;;;;;;;;;3.00;3.00;;;;;19.68;38.05;101043.06;5070632;28;51246;-45
2021/11/29 11:17:25;;;;;;;;;5.00;3.00;;;;;19.77;37.99;101041.81;5068967;28;50953;-44
2021/11/29 11:19:53;;;;;;;;;2.00;2.00;;;;;19.88;37.54;101038.41;5031858;28;51216;-44
2021/11/29 11:22:28;;;;;;;;;3.75;3.25;;;;;20.00;37.76;101035.84;5027285;28;51199;-44
2021/11/29 11:24:57;;;;;;;;;3.00;2.00;;;;;20.11;37.79;101030.56;5059483;27;51410;-44